Lytton Springs, Texas
Current Conditions -  °F | °C
As of 6:45 AM on Saturday 25 Oct 2014 (Local Time) from KHYI Reporting Station
Clear Clear  
Wind Chill: 57°   Ceiling: Unl
Heat Index: 57°   Visibility: 10mi
Dew Point: 50°   Wind: 0mph
Humidity: 77%   Direction: NA
Pressure: 30.16"   Gusts: NA
Location:  29.8789°N, 97.5317°W
Report Text: KHYI 251145Z 00000KT 10SM CLR 14/10 A3016 RMK FIRST
Loading
Personal Weather Stations






























Interactive Weather Map
Tropical Storm Tracking
New forecast layout! Learn more

10-Day Weather Forecast

Advertisements
Track Severe Weather on mobile